sensor_id;sensor_type;location;lat;lon;timestamp;temperature;humidity
10123;DHT22;5101;49.038;8.710;2022-08-01T00:02:09;21.80;72.70
10123;DHT22;5101;49.038;8.710;2022-08-01T00:04:35;21.80;73.60
10123;DHT22;5101;49.038;8.710;2022-08-01T00:07:00;21.70;73.20
10123;DHT22;5101;49.038;8.710;2022-08-01T00:09:26;21.70;73.10
10123;DHT22;5101;49.038;8.710;2022-08-01T00:11:51;21.60;73.00
10123;DHT22;5101;49.038;8.710;2022-08-01T00:14:17;21.60;73.30
10123;DHT22;5101;49.038;8.710;2022-08-01T00:16:42;21.60;73.40
10123;DHT22;5101;49.038;8.710;2022-08-01T00:19:08;21.50;73.30
10123;DHT22;5101;49.038;8.710;2022-08-01T00:21:33;21.50;73.60
10123;DHT22;5101;49.038;8.710;2022-08-01T00:23:59;21.50;74.70
10123;DHT22;5101;49.038;8.710;2022-08-01T00:26:24;21.40;74.60
10123;DHT22;5101;49.038;8.710;2022-08-01T00:28:50;21.40;74.50
10123;DHT22;5101;49.038;8.710;2022-08-01T00:31:15;21.30;74.90
10123;DHT22;5101;49.038;8.710;2022-08-01T00:33:41;21.30;76.00
10123;DHT22;5101;49.038;8.710;2022-08-01T00:36:06;21.30;76.60
10123;DHT22;5101;49.038;8.710;2022-08-01T00:38:32;21.20;76.40
10123;DHT22;5101;49.038;8.710;2022-08-01T00:40:57;21.20;76.30
10123;DHT22;5101;49.038;8.710;2022-08-01T00:43:23;21.10;76.40
10123;DHT22;5101;49.038;8.710;2022-08-01T00:45:49;21.10;76.40
10123;DHT22;5101;49.038;8.710;2022-08-01T00:48:14;21.00;76.30
10123;DHT22;5101;49.038;8.710;2022-08-01T00:50:40;21.00;76.60
10123;DHT22;5101;49.038;8.710;2022-08-01T00:53:05;21.00;77.00
10123;DHT22;5101;49.038;8.710;2022-08-01T00:55:32;21.00;77.50
10123;DHT22;5101;49.038;8.710;2022-08-01T00:57:58;21.00;77.90
10123;DHT22;5101;49.038;8.710;2022-08-01T01:00:24;20.90;77.90
10123;DHT22;5101;49.038;8.710;2022-08-01T01:02:50;20.90;77.90
10123;DHT22;5101;49.038;8.710;2022-08-01T01:05:15;20.90;77.90
10123;DHT22;5101;49.038;8.710;2022-08-01T01:10:14;20.90;77.90
10123;DHT22;5101;49.038;8.710;2022-08-01T01:12:57;20.80;77.80
10123;DHT22;5101;49.038;8.710;2022-08-01T01:18:00;20.80;78.90
10123;DHT22;5101;49.038;8.710;2022-08-01T01:20:42;20.80;78.90
10123;DHT22;5101;49.038;8.710;2022-08-01T01:23:27;20.80;79.30
10123;DHT22;5101;49.038;8.710;2022-08-01T01:31:27;20.70;79.90
10123;DHT22;5101;49.038;8.710;2022-08-01T01:33:54;20.70;80.20
10123;DHT22;5101;49.038;8.710;2022-08-01T01:36:21;20.70;80.50
10123;DHT22;5101;49.038;8.710;2022-08-01T01:38:47;20.70;80.80
10123;DHT22;5101;49.038;8.710;2022-08-01T01:41:16;20.70;81.20
10123;DHT22;5101;49.038;8.710;2022-08-01T01:43:43;20.70;81.80
10123;DHT22;5101;49.038;8.710;2022-08-01T01:46:13;20.60;82.20
10123;DHT22;5101;49.038;8.710;2022-08-01T01:48:43;20.60;82.30
10123;DHT22;5101;49.038;8.710;2022-08-01T01:51:10;20.60;82.70
10123;DHT22;5101;49.038;8.710;2022-08-01T01:53:38;20.60;82.90
10123;DHT22;5101;49.038;8.710;2022-08-01T01:56:05;20.60;83.20
10123;DHT22;5101;49.038;8.710;2022-08-01T01:58:33;20.60;83.10
10123;DHT22;5101;49.038;8.710;2022-08-01T02:00:59;20.60;83.80
10123;DHT22;5101;49.038;8.710;2022-08-01T02:03:28;20.60;84.60
10123;DHT22;5101;49.038;8.710;2022-08-01T02:05:55;20.50;84.30
10123;DHT22;5101;49.038;8.710;2022-08-01T02:08:23;20.60;83.80
10123;DHT22;5101;49.038;8.710;2022-08-01T02:10:51;20.60;84.30
10123;DHT22;5101;49.038;8.710;2022-08-01T02:13:37;20.60;84.30
10123;DHT22;5101;49.038;8.710;2022-08-01T02:16:03;20.60;84.40
10123;DHT22;5101;49.038;8.710;2022-08-01T02:18:29;20.50;84.10
10123;DHT22;5101;49.038;8.710;2022-08-01T02:20:57;20.50;84.20
10123;DHT22;5101;49.038;8.710;2022-08-01T02:23:24;20.50;84.80
10123;DHT22;5101;49.038;8.710;2022-08-01T02:25:55;20.50;85.00
10123;DHT22;5101;49.038;8.710;2022-08-01T02:28:30;20.50;84.80
10123;DHT22;5101;49.038;8.710;2022-08-01T02:31:02;20.40;85.20
10123;DHT22;5101;49.038;8.710;2022-08-01T02:33:39;20.40;85.10
10123;DHT22;5101;49.038;8.710;2022-08-01T02:36:06;20.40;85.00
10123;DHT22;5101;49.038;8.710;2022-08-01T02:38:35;20.40;85.00
10123;DHT22;5101;49.038;8.710;2022-08-01T02:41:08;20.40;85.50
10123;DHT22;5101;49.038;8.710;2022-08-01T02:43:37;20.30;86.10
10123;DHT22;5101;49.038;8.710;2022-08-01T02:46:06;20.30;86.10
10123;DHT22;5101;49.038;8.710;2022-08-01T02:48:36;20.30;86.50
10123;DHT22;5101;49.038;8.710;2022-08-01T02:51:03;20.30;86.80
10123;DHT22;5101;49.038;8.710;2022-08-01T02:53:32;20.30;86.70
10123;DHT22;5101;49.038;8.710;2022-08-01T02:56:06;20.30;87.40
10123;DHT22;5101;49.038;8.710;2022-08-01T02:58:33;20.30;87.90
10123;DHT22;5101;49.038;8.710;2022-08-01T03:01:01;20.20;87.60
10123;DHT22;5101;49.038;8.710;2022-08-01T03:03:28;20.20;87.60
10123;DHT22;5101;49.038;8.710;2022-08-01T03:05:54;20.20;87.90
10123;DHT22;5101;49.038;8.710;2022-08-01T03:08:21;20.20;88.10
10123;DHT22;5101;49.038;8.710;2022-08-01T03:10:48;20.10;88.30
10123;DHT22;5101;49.038;8.710;2022-08-01T03:13:15;20.10;88.80
10123;DHT22;5101;49.038;8.710;2022-08-01T03:15:42;20.10;89.50
10123;DHT22;5101;49.038;8.710;2022-08-01T03:18:09;20.00;90.10
10123;DHT22;5101;49.038;8.710;2022-08-01T03:20:36;20.00;90.30
10123;DHT22;5101;49.038;8.710;2022-08-01T03:23:05;20.00;90.50
10123;DHT22;5101;49.038;8.710;2022-08-01T03:25:32;20.00;90.70
10123;DHT22;5101;49.038;8.710;2022-08-01T03:28:02;20.00;90.80
10123;DHT22;5101;49.038;8.710;2022-08-01T03:30:29;19.90;90.80
10123;DHT22;5101;49.038;8.710;2022-08-01T03:32:56;19.90;90.80
10123;DHT22;5101;49.038;8.710;2022-08-01T03:35:24;19.90;91.00
10123;DHT22;5101;49.038;8.710;2022-08-01T03:37:53;19.90;91.20
10123;DHT22;5101;49.038;8.710;2022-08-01T03:40:40;19.90;90.90
10123;DHT22;5101;49.038;8.710;2022-08-01T03:45:55;19.90;91.20
10123;DHT22;5101;49.038;8.710;2022-08-01T03:48:28;19.80;91.20
10123;DHT22;5101;49.038;8.710;2022-08-01T03:50:54;19.80;91.30
10123;DHT22;5101;49.038;8.710;2022-08-01T03:53:24;19.80;91.20
10123;DHT22;5101;49.038;8.710;2022-08-01T03:55:52;19.80;91.20
10123;DHT22;5101;49.038;8.710;2022-08-01T03:58:19;19.70;91.10
10123;DHT22;5101;49.038;8.710;2022-08-01T04:00:45;19.70;91.10
10123;DHT22;5101;49.038;8.710;2022-08-01T04:03:12;19.70;91.20
10123;DHT22;5101;49.038;8.710;2022-08-01T04:05:41;19.70;91.60
10123;DHT22;5101;49.038;8.710;2022-08-01T04:08:06;19.70;91.90
10123;DHT22;5101;49.038;8.710;2022-08-01T04:10:32;19.70;92.00
10123;DHT22;5101;49.038;8.710;2022-08-01T04:12:57;19.70;92.60
10123;DHT22;5101;49.038;8.710;2022-08-01T04:15:23;19.60;92.40
10123;DHT22;5101;49.038;8.710;2022-08-01T04:17:49;19.60;92.40
10123;DHT22;5101;49.038;8.710;2022-08-01T04:20:14;19.60;92.40
10123;DHT22;5101;49.038;8.710;2022-08-01T04:22:41;19.60;92.50
10123;DHT22;5101;49.038;8.710;2022-08-01T04:25:29;19.60;92.70
10123;DHT22;5101;49.038;8.710;2022-08-01T04:27:58;19.60;93.10
10123;DHT22;5101;49.038;8.710;2022-08-01T04:30:30;19.60;92.90
10123;DHT22;5101;49.038;8.710;2022-08-01T04:32:59;19.50;93.10
10123;DHT22;5101;49.038;8.710;2022-08-01T04:35:26;19.50;93.00
10123;DHT22;5101;49.038;8.710;2022-08-01T04:37:53;19.50;93.10
10123;DHT22;5101;49.038;8.710;2022-08-01T04:40:19;19.50;93.20
10123;DHT22;5101;49.038;8.710;2022-08-01T04:42:47;19.50;93.40
10123;DHT22;5101;49.038;8.710;2022-08-01T04:45:14;19.50;93.50
10123;DHT22;5101;49.038;8.710;2022-08-01T04:47:40;19.50;93.50
10123;DHT22;5101;49.038;8.710;2022-08-01T04:50:08;19.50;93.50
10123;DHT22;5101;49.038;8.710;2022-08-01T04:52:37;19.40;93.60
10123;DHT22;5101;49.038;8.710;2022-08-01T04:55:04;19.50;93.80
10123;DHT22;5101;49.038;8.710;2022-08-01T04:57:33;19.50;93.80
10123;DHT22;5101;49.038;8.710;2022-08-01T04:59:59;19.40;93.90
10123;DHT22;5101;49.038;8.710;2022-08-01T05:02:27;19.40;94.20
10123;DHT22;5101;49.038;8.710;2022-08-01T05:04:54;19.40;94.20
10123;DHT22;5101;49.038;8.710;2022-08-01T05:07:20;19.50;94.30
10123;DHT22;5101;49.038;8.710;2022-08-01T05:09:46;19.50;94.70
10123;DHT22;5101;49.038;8.710;2022-08-01T05:12:12;19.50;94.80
10123;DHT22;5101;49.038;8.710;2022-08-01T05:14:37;19.50;94.70
10123;DHT22;5101;49.038;8.710;2022-08-01T05:17:04;19.50;94.80
10123;DHT22;5101;49.038;8.710;2022-08-01T05:19:35;19.60;95.20
10123;DHT22;5101;49.038;8.710;2022-08-01T05:22:03;19.60;95.70
10123;DHT22;5101;49.038;8.710;2022-08-01T05:24:30;19.60;95.90
10123;DHT22;5101;49.038;8.710;2022-08-01T05:26:57;19.60;96.50
10123;DHT22;5101;49.038;8.710;2022-08-01T05:29:23;19.70;96.80
10123;DHT22;5101;49.038;8.710;2022-08-01T05:31:48;19.70;96.70
10123;DHT22;5101;49.038;8.710;2022-08-01T05:34:14;19.80;96.80
10123;DHT22;5101;49.038;8.710;2022-08-01T05:36:39;19.80;96.90
10123;DHT22;5101;49.038;8.710;2022-08-01T05:39:05;19.80;96.60
10123;DHT22;5101;49.038;8.710;2022-08-01T05:41:31;19.80;96.30
10123;DHT22;5101;49.038;8.710;2022-08-01T05:43:56;19.90;96.00
10123;DHT22;5101;49.038;8.710;2022-08-01T05:46:22;19.90;95.80
10123;DHT22;5101;49.038;8.710;2022-08-01T05:48:47;20.00;95.70
10123;DHT22;5101;49.038;8.710;2022-08-01T05:51:13;20.00;95.70
10123;DHT22;5101;49.038;8.710;2022-08-01T05:53:38;20.10;95.60
10123;DHT22;5101;49.038;8.710;2022-08-01T05:56:04;20.10;95.30
10123;DHT22;5101;49.038;8.710;2022-08-01T05:58:30;20.20;95.20
10123;DHT22;5101;49.038;8.710;2022-08-01T06:00:55;20.20;95.00
10123;DHT22;5101;49.038;8.710;2022-08-01T06:03:21;20.30;95.00
10123;DHT22;5101;49.038;8.710;2022-08-01T06:05:47;20.30;95.10
10123;DHT22;5101;49.038;8.710;2022-08-01T06:08:12;20.40;95.00
10123;DHT22;5101;49.038;8.710;2022-08-01T06:10:37;20.40;95.00
10123;DHT22;5101;49.038;8.710;2022-08-01T06:13:03;20.50;94.70
10123;DHT22;5101;49.038;8.710;2022-08-01T06:15:30;20.60;94.70
10123;DHT22;5101;49.038;8.710;2022-08-01T06:17:55;20.80;94.70
10123;DHT22;5101;49.038;8.710;2022-08-01T06:20:21;20.80;94.70
10123;DHT22;5101;49.038;8.710;2022-08-01T06:22:46;21.00;94.80
10123;DHT22;5101;49.038;8.710;2022-08-01T06:25:12;21.20;94.90
10123;DHT22;5101;49.038;8.710;2022-08-01T06:27:38;21.40;95.00
10123;DHT22;5101;49.038;8.710;2022-08-01T06:30:05;21.70;95.00
10123;DHT22;5101;49.038;8.710;2022-08-01T06:32:32;22.00;94.70
10123;DHT22;5101;49.038;8.710;2022-08-01T06:34:58;22.40;94.10
10123;DHT22;5101;49.038;8.710;2022-08-01T06:37:28;22.90;93.40
10123;DHT22;5101;49.038;8.710;2022-08-01T06:39:54;23.30;91.90
10123;DHT22;5101;49.038;8.710;2022-08-01T06:42:19;23.70;90.90
10123;DHT22;5101;49.038;8.710;2022-08-01T06:44:45;24.20;90.10
10123;DHT22;5101;49.038;8.710;2022-08-01T06:47:10;24.50;88.10
10123;DHT22;5101;49.038;8.710;2022-08-01T06:49:36;24.90;86.00
10123;DHT22;5101;49.038;8.710;2022-08-01T06:52:02;25.40;84.20
10123;DHT22;5101;49.038;8.710;2022-08-01T06:54:28;25.90;82.10
10123;DHT22;5101;49.038;8.710;2022-08-01T06:56:54;26.30;80.20
10123;DHT22;5101;49.038;8.710;2022-08-01T06:59:20;26.80;77.90
10123;DHT22;5101;49.038;8.710;2022-08-01T07:01:45;27.20;75.40
10123;DHT22;5101;49.038;8.710;2022-08-01T07:04:11;27.50;72.90
10123;DHT22;5101;49.038;8.710;2022-08-01T07:06:36;27.50;71.60
10123;DHT22;5101;49.038;8.710;2022-08-01T07:09:02;27.80;70.50
10123;DHT22;5101;49.038;8.710;2022-08-01T07:11:28;28.20;69.10
10123;DHT22;5101;49.038;8.710;2022-08-01T07:13:54;28.70;66.60
10123;DHT22;5101;49.038;8.710;2022-08-01T07:16:21;29.10;64.50
10123;DHT22;5101;49.038;8.710;2022-08-01T07:18:47;29.50;62.10
10123;DHT22;5101;49.038;8.710;2022-08-01T07:21:12;29.70;60.20
10123;DHT22;5101;49.038;8.710;2022-08-01T07:23:38;30.10;58.60
10123;DHT22;5101;49.038;8.710;2022-08-01T07:26:04;30.50;57.00
10123;DHT22;5101;49.038;8.710;2022-08-01T07:28:30;30.80;55.00
10123;DHT22;5101;49.038;8.710;2022-08-01T07:30:55;31.10;52.50
10123;DHT22;5101;49.038;8.710;2022-08-01T07:33:21;31.30;50.80
10123;DHT22;5101;49.038;8.710;2022-08-01T07:35:48;31.40;49.40
10123;DHT22;5101;49.038;8.710;2022-08-01T07:38:13;31.60;48.50
10123;DHT22;5101;49.038;8.710;2022-08-01T07:40:40;32.00;47.20
10123;DHT22;5101;49.038;8.710;2022-08-01T07:43:06;32.20;45.70
10123;DHT22;5101;49.038;8.710;2022-08-01T07:45:31;32.50;44.60
10123;DHT22;5101;49.038;8.710;2022-08-01T07:48:04;32.80;43.60
10123;DHT22;5101;49.038;8.710;2022-08-01T07:50:30;33.00;42.20
10123;DHT22;5101;49.038;8.710;2022-08-01T07:52:56;32.90;41.70
10123;DHT22;5101;49.038;8.710;2022-08-01T07:55:22;32.50;42.20
10123;DHT22;5101;49.038;8.710;2022-08-01T07:57:47;32.60;41.70
10123;DHT22;5101;49.038;8.710;2022-08-01T08:00:13;32.90;41.30
10123;DHT22;5101;49.038;8.710;2022-08-01T08:02:38;33.00;41.20
10123;DHT22;5101;49.038;8.710;2022-08-01T08:05:04;33.20;40.80
10123;DHT22;5101;49.038;8.710;2022-08-01T08:07:31;33.10;40.50
10123;DHT22;5101;49.038;8.710;2022-08-01T08:09:57;32.90;40.60
10123;DHT22;5101;49.038;8.710;2022-08-01T08:12:23;32.80;40.60
10123;DHT22;5101;49.038;8.710;2022-08-01T08:14:48;32.70;41.20
10123;DHT22;5101;49.038;8.710;2022-08-01T08:17:13;32.20;42.00
10123;DHT22;5101;49.038;8.710;2022-08-01T08:19:39;31.80;42.80
10123;DHT22;5101;49.038;8.710;2022-08-01T08:22:08;31.80;43.00
10123;DHT22;5101;49.038;8.710;2022-08-01T08:24:35;31.60;43.60
10123;DHT22;5101;49.038;8.710;2022-08-01T08:27:01;31.60;44.30
10123;DHT22;5101;49.038;8.710;2022-08-01T08:29:29;31.80;44.30
10123;DHT22;5101;49.038;8.710;2022-08-01T08:31:57;32.00;43.40
10123;DHT22;5101;49.038;8.710;2022-08-01T08:34:24;31.90;43.10
10123;DHT22;5101;49.038;8.710;2022-08-01T08:36:51;32.00;42.70
10123;DHT22;5101;49.038;8.710;2022-08-01T08:39:17;32.10;42.00
10123;DHT22;5101;49.038;8.710;2022-08-01T08:41:43;32.10;41.60
10123;DHT22;5101;49.038;8.710;2022-08-01T08:44:09;31.80;41.80
10123;DHT22;5101;49.038;8.710;2022-08-01T08:46:41;31.60;43.10
10123;DHT22;5101;49.038;8.710;2022-08-01T08:49:06;31.50;43.50
10123;DHT22;5101;49.038;8.710;2022-08-01T08:51:34;31.50;43.30
10123;DHT22;5101;49.038;8.710;2022-08-01T08:54:03;31.50;43.40
10123;DHT22;5101;49.038;8.710;2022-08-01T08:56:29;31.30;44.00
10123;DHT22;5101;49.038;8.710;2022-08-01T08:58:59;30.90;44.10
10123;DHT22;5101;49.038;8.710;2022-08-01T09:01:25;30.60;44.80
10123;DHT22;5101;49.038;8.710;2022-08-01T09:03:51;30.60;45.10
10123;DHT22;5101;49.038;8.710;2022-08-01T09:06:16;30.70;45.80
10123;DHT22;5101;49.038;8.710;2022-08-01T09:08:42;30.60;46.20
10123;DHT22;5101;49.038;8.710;2022-08-01T09:11:08;30.50;46.80
10123;DHT22;5101;49.038;8.710;2022-08-01T09:13:33;30.60;46.90
10123;DHT22;5101;49.038;8.710;2022-08-01T09:15:59;30.60;46.80
10123;DHT22;5101;49.038;8.710;2022-08-01T09:18:40;30.70;46.90
10123;DHT22;5101;49.038;8.710;2022-08-01T09:23:37;30.80;45.70
10123;DHT22;5101;49.038;8.710;2022-08-01T09:26:11;30.90;46.00
10123;DHT22;5101;49.038;8.710;2022-08-01T09:28:37;31.00;46.00
10123;DHT22;5101;49.038;8.710;2022-08-01T09:31:09;31.30;45.60
10123;DHT22;5101;49.038;8.710;2022-08-01T09:36:22;31.60;44.50
10123;DHT22;5101;49.038;8.710;2022-08-01T09:38:49;31.80;44.30
10123;DHT22;5101;49.038;8.710;2022-08-01T09:41:15;31.90;43.60
10123;DHT22;5101;49.038;8.710;2022-08-01T09:43:48;32.10;42.90
10123;DHT22;5101;49.038;8.710;2022-08-01T09:46:14;32.00;41.90
10123;DHT22;5101;49.038;8.710;2022-08-01T09:49:00;32.00;41.60
10123;DHT22;5101;49.038;8.710;2022-08-01T09:51:38;31.80;42.10
10123;DHT22;5101;49.038;8.710;2022-08-01T09:54:05;31.80;42.20
10123;DHT22;5101;49.038;8.710;2022-08-01T09:56:39;31.90;42.00
10123;DHT22;5101;49.038;8.710;2022-08-01T09:59:05;32.00;41.90
10123;DHT22;5101;49.038;8.710;2022-08-01T10:01:48;32.30;41.60
10123;DHT22;5101;49.038;8.710;2022-08-01T10:04:22;32.50;40.80
10123;DHT22;5101;49.038;8.710;2022-08-01T10:06:50;32.50;41.60
10123;DHT22;5101;49.038;8.710;2022-08-01T10:09:29;32.60;41.40
10123;DHT22;5101;49.038;8.710;2022-08-01T10:11:56;32.80;40.40
10123;DHT22;5101;49.038;8.710;2022-08-01T10:14:24;32.80;39.80
10123;DHT22;5101;49.038;8.710;2022-08-01T10:16:52;32.90;39.40
10123;DHT22;5101;49.038;8.710;2022-08-01T10:19:20;32.80;39.60
10123;DHT22;5101;49.038;8.710;2022-08-01T10:21:46;32.60;39.70
10123;DHT22;5101;49.038;8.710;2022-08-01T10:24:15;32.40;40.60
10123;DHT22;5101;49.038;8.710;2022-08-01T10:26:41;32.50;40.70
10123;DHT22;5101;49.038;8.710;2022-08-01T10:29:09;32.40;40.10
10123;DHT22;5101;49.038;8.710;2022-08-01T10:31:35;32.10;40.50
10123;DHT22;5101;49.038;8.710;2022-08-01T10:34:01;32.10;40.80
10123;DHT22;5101;49.038;8.710;2022-08-01T10:36:27;32.10;40.60
10123;DHT22;5101;49.038;8.710;2022-08-01T10:38:54;32.00;40.50
10123;DHT22;5101;49.038;8.710;2022-08-01T10:41:21;32.00;40.70
10123;DHT22;5101;49.038;8.710;2022-08-01T10:43:46;31.80;41.40
10123;DHT22;5101;49.038;8.710;2022-08-01T10:46:12;31.80;41.90
10123;DHT22;5101;49.038;8.710;2022-08-01T10:51:17;31.60;41.50
10123;DHT22;5101;49.038;8.710;2022-08-01T10:53:52;31.60;41.80
10123;DHT22;5101;49.038;8.710;2022-08-01T10:56:18;31.60;42.00
10123;DHT22;5101;49.038;8.710;2022-08-01T10:58:46;31.50;42.20
10123;DHT22;5101;49.038;8.710;2022-08-01T11:03:44;31.40;43.30
10123;DHT22;5101;49.038;8.710;2022-08-01T11:06:17;31.30;43.20
10123;DHT22;5101;49.038;8.710;2022-08-01T11:08:51;31.30;43.20
10123;DHT22;5101;49.038;8.710;2022-08-01T11:11:18;31.30;43.10
10123;DHT22;5101;49.038;8.710;2022-08-01T11:14:03;31.30;43.00
10123;DHT22;5101;49.038;8.710;2022-08-01T11:16:34;31.20;43.30
10123;DHT22;5101;49.038;8.710;2022-08-01T11:19:01;31.30;43.70
10123;DHT22;5101;49.038;8.710;2022-08-01T11:27:28;31.50;43.00
10123;DHT22;5101;49.038;8.710;2022-08-01T11:32:52;31.30;43.00
10123;DHT22;5101;49.038;8.710;2022-08-01T11:35:19;31.20;43.80
10123;DHT22;5101;49.038;8.710;2022-08-01T11:37:49;31.30;44.00
10123;DHT22;5101;49.038;8.710;2022-08-01T11:40:27;31.50;43.40
10123;DHT22;5101;49.038;8.710;2022-08-01T11:45:54;32.00;42.10
10123;DHT22;5101;49.038;8.710;2022-08-01T11:48:29;32.10;41.90
10123;DHT22;5101;49.038;8.710;2022-08-01T11:50:58;32.10;41.80
10123;DHT22;5101;49.038;8.710;2022-08-01T11:53:23;32.10;41.50
10123;DHT22;5101;49.038;8.710;2022-08-01T11:55:51;32.20;41.00
10123;DHT22;5101;49.038;8.710;2022-08-01T11:58:24;32.20;40.60
10123;DHT22;5101;49.038;8.710;2022-08-01T12:00:54;32.20;40.60
10123;DHT22;5101;49.038;8.710;2022-08-01T12:03:28;32.00;41.10
10123;DHT22;5101;49.038;8.710;2022-08-01T12:05:55;32.00;41.00
10123;DHT22;5101;49.038;8.710;2022-08-01T12:08:28;32.10;41.40
10123;DHT22;5101;49.038;8.710;2022-08-01T12:10:54;32.20;41.90
10123;DHT22;5101;49.038;8.710;2022-08-01T12:13:20;32.10;41.60
10123;DHT22;5101;49.038;8.710;2022-08-01T12:15:47;32.00;41.40
10123;DHT22;5101;49.038;8.710;2022-08-01T12:18:13;32.00;41.30
10123;DHT22;5101;49.038;8.710;2022-08-01T12:20:44;32.10;41.20
10123;DHT22;5101;49.038;8.710;2022-08-01T12:23:12;32.10;41.60
10123;DHT22;5101;49.038;8.710;2022-08-01T12:25:38;32.10;41.20
10123;DHT22;5101;49.038;8.710;2022-08-01T12:28:07;32.00;40.70
10123;DHT22;5101;49.038;8.710;2022-08-01T12:30:34;31.90;39.90
10123;DHT22;5101;49.038;8.710;2022-08-01T12:33:01;31.80;40.00
10123;DHT22;5101;49.038;8.710;2022-08-01T12:35:28;31.80;40.10
10123;DHT22;5101;49.038;8.710;2022-08-01T12:37:58;31.80;40.40
10123;DHT22;5101;49.038;8.710;2022-08-01T12:40:26;31.70;40.20
10123;DHT22;5101;49.038;8.710;2022-08-01T12:42:54;31.60;40.20
10123;DHT22;5101;49.038;8.710;2022-08-01T12:45:25;31.40;40.80
10123;DHT22;5101;49.038;8.710;2022-08-01T12:47:52;31.40;41.20
10123;DHT22;5101;49.038;8.710;2022-08-01T12:50:20;31.30;41.00
10123;DHT22;5101;49.038;8.710;2022-08-01T12:52:47;31.10;41.20
10123;DHT22;5101;49.038;8.710;2022-08-01T12:55:20;31.20;41.80
10123;DHT22;5101;49.038;8.710;2022-08-01T12:57:49;31.30;41.80
10123;DHT22;5101;49.038;8.710;2022-08-01T13:00:21;31.40;41.10
10123;DHT22;5101;49.038;8.710;2022-08-01T13:02:48;31.30;40.90
10123;DHT22;5101;49.038;8.710;2022-08-01T13:05:15;31.10;41.00
10123;DHT22;5101;49.038;8.710;2022-08-01T13:07:43;31.10;41.00
10123;DHT22;5101;49.038;8.710;2022-08-01T13:10:10;31.00;41.10
10123;DHT22;5101;49.038;8.710;2022-08-01T13:12:36;31.00;41.40
10123;DHT22;5101;49.038;8.710;2022-08-01T13:15:17;31.00;41.50
10123;DHT22;5101;49.038;8.710;2022-08-01T13:17:42;31.00;41.40
10123;DHT22;5101;49.038;8.710;2022-08-01T13:20:09;31.00;41.30
10123;DHT22;5101;49.038;8.710;2022-08-01T13:22:36;30.90;41.20
10123;DHT22;5101;49.038;8.710;2022-08-01T13:25:14;30.90;41.00
10123;DHT22;5101;49.038;8.710;2022-08-01T13:27:41;30.90;41.30
10123;DHT22;5101;49.038;8.710;2022-08-01T13:30:14;30.90;41.40
10123;DHT22;5101;49.038;8.710;2022-08-01T13:32:40;31.00;40.60
10123;DHT22;5101;49.038;8.710;2022-08-01T13:35:10;31.00;41.30
10123;DHT22;5101;49.038;8.710;2022-08-01T13:37:39;30.90;40.50
10123;DHT22;5101;49.038;8.710;2022-08-01T13:40:05;30.90;40.80
10123;DHT22;5101;49.038;8.710;2022-08-01T13:42:31;30.80;40.80
10123;DHT22;5101;49.038;8.710;2022-08-01T13:44:57;30.70;40.90
10123;DHT22;5101;49.038;8.710;2022-08-01T13:47:22;30.70;41.00
10123;DHT22;5101;49.038;8.710;2022-08-01T13:49:48;30.70;41.20
10123;DHT22;5101;49.038;8.710;2022-08-01T13:52:13;30.70;41.30
10123;DHT22;5101;49.038;8.710;2022-08-01T13:54:39;30.70;41.60
10123;DHT22;5101;49.038;8.710;2022-08-01T13:57:05;30.70;41.90
10123;DHT22;5101;49.038;8.710;2022-08-01T13:59:30;30.70;42.00
10123;DHT22;5101;49.038;8.710;2022-08-01T14:01:56;30.70;41.80
10123;DHT22;5101;49.038;8.710;2022-08-01T14:04:21;30.70;41.70
10123;DHT22;5101;49.038;8.710;2022-08-01T14:06:47;30.70;41.30
10123;DHT22;5101;49.038;8.710;2022-08-01T14:09:13;30.80;41.40
10123;DHT22;5101;49.038;8.710;2022-08-01T14:11:42;30.80;41.60
10123;DHT22;5101;49.038;8.710;2022-08-01T14:14:07;30.80;41.60
10123;DHT22;5101;49.038;8.710;2022-08-01T14:16:33;30.80;41.40
10123;DHT22;5101;49.038;8.710;2022-08-01T14:18:58;30.80;41.10
10123;DHT22;5101;49.038;8.710;2022-08-01T14:21:23;30.80;41.10
10123;DHT22;5101;49.038;8.710;2022-08-01T14:23:49;30.70;40.70
10123;DHT22;5101;49.038;8.710;2022-08-01T14:26:14;30.70;40.50
10123;DHT22;5101;49.038;8.710;2022-08-01T14:28:40;30.70;40.80
10123;DHT22;5101;49.038;8.710;2022-08-01T14:31:06;30.60;40.80
10123;DHT22;5101;49.038;8.710;2022-08-01T14:33:32;30.50;40.90
10123;DHT22;5101;49.038;8.710;2022-08-01T14:35:58;30.50;41.20
10123;DHT22;5101;49.038;8.710;2022-08-01T14:38:23;30.50;41.50
10123;DHT22;5101;49.038;8.710;2022-08-01T14:40:49;30.40;41.30
10123;DHT22;5101;49.038;8.710;2022-08-01T14:43:17;30.40;41.10
10123;DHT22;5101;49.038;8.710;2022-08-01T14:45:43;30.40;41.20
10123;DHT22;5101;49.038;8.710;2022-08-01T14:48:09;30.30;41.20
10123;DHT22;5101;49.038;8.710;2022-08-01T14:50:34;30.40;41.20
10123;DHT22;5101;49.038;8.710;2022-08-01T14:53:00;30.30;41.20
10123;DHT22;5101;49.038;8.710;2022-08-01T14:55:25;30.30;41.20
10123;DHT22;5101;49.038;8.710;2022-08-01T14:57:52;30.30;41.30
10123;DHT22;5101;49.038;8.710;2022-08-01T15:00:18;30.30;41.30
10123;DHT22;5101;49.038;8.710;2022-08-01T15:02:45;30.20;41.00
10123;DHT22;5101;49.038;8.710;2022-08-01T15:05:11;30.10;41.10
10123;DHT22;5101;49.038;8.710;2022-08-01T15:07:37;30.10;41.50
10123;DHT22;5101;49.038;8.710;2022-08-01T15:10:05;30.10;41.60
10123;DHT22;5101;49.038;8.710;2022-08-01T15:12:31;30.10;41.70
10123;DHT22;5101;49.038;8.710;2022-08-01T15:14:56;30.10;41.60
10123;DHT22;5101;49.038;8.710;2022-08-01T15:17:26;30.00;41.60
10123;DHT22;5101;49.038;8.710;2022-08-01T15:19:55;30.00;41.50
10123;DHT22;5101;49.038;8.710;2022-08-01T15:22:21;30.00;41.80
10123;DHT22;5101;49.038;8.710;2022-08-01T15:24:48;30.00;42.00
10123;DHT22;5101;49.038;8.710;2022-08-01T15:27:14;29.90;42.10
10123;DHT22;5101;49.038;8.710;2022-08-01T15:29:40;29.90;42.00
10123;DHT22;5101;49.038;8.710;2022-08-01T15:32:06;29.90;42.00
10123;DHT22;5101;49.038;8.710;2022-08-01T15:34:33;29.80;42.00
10123;DHT22;5101;49.038;8.710;2022-08-01T15:37:00;29.80;42.60
10123;DHT22;5101;49.038;8.710;2022-08-01T15:39:25;29.80;42.70
10123;DHT22;5101;49.038;8.710;2022-08-01T15:41:51;29.70;42.60
10123;DHT22;5101;49.038;8.710;2022-08-01T15:44:17;29.70;42.90
10123;DHT22;5101;49.038;8.710;2022-08-01T15:46:47;29.70;42.90
10123;DHT22;5101;49.038;8.710;2022-08-01T15:49:13;29.60;42.90
10123;DHT22;5101;49.038;8.710;2022-08-01T15:51:40;29.50;43.10
10123;DHT22;5101;49.038;8.710;2022-08-01T15:54:06;29.50;43.20
10123;DHT22;5101;49.038;8.710;2022-08-01T15:56:32;29.50;43.50
10123;DHT22;5101;49.038;8.710;2022-08-01T15:58:57;29.50;43.90
10123;DHT22;5101;49.038;8.710;2022-08-01T16:01:23;29.50;43.90
10123;DHT22;5101;49.038;8.710;2022-08-01T16:03:51;29.40;44.10
10123;DHT22;5101;49.038;8.710;2022-08-01T16:06:17;29.50;44.50
10123;DHT22;5101;49.038;8.710;2022-08-01T16:08:43;29.50;44.50
10123;DHT22;5101;49.038;8.710;2022-08-01T16:11:08;29.40;44.50
10123;DHT22;5101;49.038;8.710;2022-08-01T16:13:34;29.40;44.80
10123;DHT22;5101;49.038;8.710;2022-08-01T16:15:59;29.30;44.90
10123;DHT22;5101;49.038;8.710;2022-08-01T16:18:27;29.20;45.10
10123;DHT22;5101;49.038;8.710;2022-08-01T16:20:52;29.20;45.10
10123;DHT22;5101;49.038;8.710;2022-08-01T16:23:18;29.10;45.10